Mazagon R — EAII — position and weather

sailwx.info

Track history (hours):
 
Tides and Currents Weather Stations Pressure Air Temp Water Temp Dewpoint Dewpoint Depression Visibility Wind Speed Wind Dir Waves Ship Positions

Mazagon R

Last reported at 2017-Nov-10 11:33 UTC. Time now 2017-Nov-19 01:12 UTC.
Position S 04°56' E 011°22'.
Warning: this ship's position is 8 days out of date.

Length 34 m.

Type: Fishing. MMSI: 224300000.

Date/timePositionNaut miles runAvg speedWind from/ knotsBaromVisibWave heightAir tempDewpointWater temp
2017-Nov-10 11:33S 04°56' E 011°22'1 8.9
2017-Nov-10 11:26S 04°57' E 011°23'3 6.6
2017-Nov-10 11:00S 04°59' E 011°24'2 2.6
2017-Nov-10 10:20S 05°01' E 011°25'2 3.2
2017-Nov-10 09:41S 05°03' E 011°26'1 3.2
2017-Nov-10 09:13S 05°04' E 011°27'1 3.2
2017-Nov-10 08:55S 05°05' E 011°27'1 3.2
2017-Nov-10 08:30S 05°06' E 011°28'0 0.5
2017-Nov-10 07:59S 05°06' E 011°28'2 3.1
2017-Nov-10 07:31S 05°05' E 011°27'2 3.1
2017-Nov-10 06:52S 05°03' E 011°26'1 3.1
2017-Nov-10 06:24S 05°02' E 011°26'1 3.2
2017-Nov-10 05:57S 05°01' E 011°25'2 3.2
2017-Nov-10 05:29S 04°59' E 011°24'2 3.2
2017-Nov-10 05:00S 04°58' E 011°23'3 6.1
2017-Nov-10 04:30S 04°57' E 011°20'2 1.2
2017-Nov-10 02:49S 04°59' E 011°19'1 3.0
2017-Nov-10 02:29S 04°60' E 011°20'1 3.1
2017-Nov-10 02:00S 05°01' E 011°21'2 3.1
2017-Nov-10 01:30S 05°02' E 011°21'2 3.1
2017-Nov-10 01:00S 05°04' E 011°22'2 3.1
2017-Nov-10 00:30S 05°05' E 011°23'2 3.1
2017-Nov-10 00:00S 05°06' E 011°24'2 3.1
2017-Nov-09 23:30S 05°08' E 011°24'2 3.1
2017-Nov-09 23:00S 05°09' E 011°25'2 3.1
2017-Nov-09 22:30S 05°11' E 011°26'2 3.1
2017-Nov-09 22:00S 05°12' E 011°27'2 3.1
2017-Nov-09 21:30S 05°13' E 011°27'2 3.1
2017-Nov-09 21:00S 05°15' E 011°28'2 3.1
2017-Nov-09 20:31S 05°16' E 011°28'2 3.2
2017-Nov-09 20:00S 05°18' E 011°29'2 3.1
2017-Nov-09 19:31S 05°19' E 011°29'1 1.0
2017-Nov-09 19:00S 05°19' E 011°29'1 2.9
2017-Nov-09 18:30S 05°18' E 011°29'1 2.4
2017-Nov-09 18:00S 05°17' E 011°29'1 2.7
2017-Nov-09 17:30S 05°16' E 011°30'3 5.2
2017-Nov-09 16:59S 05°15' E 011°32'1 2.6
2017-Nov-09 16:29S 05°14' E 011°32'2 3.1
2017-Nov-09 16:00S 05°13' E 011°31'2 3.1
2017-Nov-09 15:27S 05°11' E 011°31'1 3.1
2017-Nov-09 14:59S 05°10' E 011°30'2 3.3
2017-Nov-09 14:30S 05°08' E 011°29'0 0.9
2017-Nov-09 13:59S 05°08' E 011°29'2 3.1
2017-Nov-09 13:30S 05°07' E 011°28'2 3.1
2017-Nov-09 13:00S 05°05' E 011°28'2 3.1
2017-Nov-09 12:30S 05°04' E 011°27'2 3.1
2017-Nov-09 11:57S 05°02' E 011°26'1 3.3
2017-Nov-09 11:31S 05°01' E 011°25'3 2.0
2017-Nov-09 10:13S 04°59' E 011°24'1 3.1
2017-Nov-09 09:54S 04°58' E 011°23'2 3.1
2017-Nov-09 09:24S 04°57' E 011°22'2 3.0
2017-Nov-09 08:36S 04°55' E 011°21'0 2.9
2017-Nov-09 08:30S 04°55' E 011°21'10 2.1
2017-Nov-09 03:48S 05°04' E 011°23'1 1.9
2017-Nov-09 03:30S 05°05' E 011°23'0 0.4
2017-Nov-09 03:00S 05°04' E 011°23'0 0.1
2017-Nov-09 02:30S 05°04' E 011°23'0 0.1
2017-Nov-09 02:00S 05°04' E 011°23'0 0.3
2017-Nov-09 01:30S 05°05' E 011°23'1 2.0
2017-Nov-09 01:00S 05°06' E 011°24'1 3.0
2017-Nov-09 00:30S 05°07' E 011°24'2 3.1
2017-Nov-09 00:00S 05°08' E 011°25'2 3.0
2017-Nov-08 23:30S 05°09' E 011°26'2 3.1
2017-Nov-08 23:00S 05°11' E 011°27'2 3.1
2017-Nov-08 22:30S 05°12' E 011°27'2 3.1
2017-Nov-08 22:00S 05°14' E 011°28'1 3.1
2017-Nov-08 21:30S 05°15' E 011°28'2 3.0
2017-Nov-08 21:00S 05°17' E 011°29'1 2.6
2017-Nov-08 20:30S 05°18' E 011°29'4 7.0
2017-Nov-08 20:00S 05°21' E 011°30'3 5.8
2017-Nov-08 19:29S 05°24' E 011°29'0 0.6
2017-Nov-08 18:59S 05°24' E 011°29'2 3.0
2017-Nov-08 18:30S 05°22' E 011°29'2 3.1
2017-Nov-08 18:00S 05°21' E 011°29'2 3.1
2017-Nov-08 17:30S 05°19' E 011°29'2 3.1
2017-Nov-08 16:59S 05°18' E 011°29'2 3.1
2017-Nov-08 16:30S 05°16' E 011°29'2 3.1
2017-Nov-08 16:00S 05°15' E 011°28'1 3.0
2017-Nov-08 15:30S 05°13' E 011°27'2 3.1
2017-Nov-08 15:00S 05°12' E 011°27'2 3.1
2017-Nov-08 14:29S 05°11' E 011°26'1 2.8
2017-Nov-08 14:00S 05°09' E 011°25'1 2.8
2017-Nov-08 13:30S 05°08' E 011°25'0 0.9
2017-Nov-08 13:00S 05°08' E 011°25'1 2.4
2017-Nov-08 12:30S 05°07' E 011°24'2 3.4
2017-Nov-08 12:00S 05°05' E 011°24'3 6.7
2017-Nov-08 11:30S 05°03' E 011°26'1 2.2
2017-Nov-08 10:58S 05°02' E 011°26'1 3.1
2017-Nov-08 10:30S 05°01' E 011°25'2 3.1
2017-Nov-08 09:56S 04°59' E 011°24'1 3.1
2017-Nov-08 09:29S 04°58' E 011°23'2 3.1
2017-Nov-08 08:58S 04°57' E 011°22'2 3.1
2017-Nov-08 08:21S 04°55' E 011°21'3 1.2
2017-Nov-08 05:48S 04°58' E 011°23'3 3.1
2017-Nov-08 04:48S 05°01' E 011°25'1 4.7
2017-Nov-08 04:29S 05°02' E 011°26'4 7.3
2017-Nov-08 03:59S 05°03' E 011°23'0 0.7
2017-Nov-08 03:29S 05°04' E 011°22'2 3.1
2017-Nov-08 03:00S 05°05' E 011°23'1 3.0
2017-Nov-08 02:30S 05°06' E 011°24'2 3.0
2017-Nov-08 02:00S 05°08' E 011°24'2 3.0
2017-Nov-08 01:30S 05°09' E 011°25'2 3.0
2017-Nov-08 01:00S 05°10' E 011°26'2 3.1
2017-Nov-08 00:30S 05°12' E 011°27'1 3.1
2017-Nov-08 00:00S 05°13' E 011°27'2 3.1
2017-Nov-07 23:30S 05°15' E 011°28'2 3.1
2017-Nov-07 23:00S 05°16' E 011°28'2 3.0
2017-Nov-07 22:29S 05°18' E 011°29'3 0.7
2017-Nov-07 18:18S 05°20' E 011°29'2 3.1
2017-Nov-07 17:44S 05°18' E 011°29'1 3.1
2017-Nov-07 17:26S 05°18' E 011°29'1 3.0
2017-Nov-07 17:00S 05°16' E 011°29'2 3.1
2017-Nov-07 16:30S 05°15' E 011°28'1 3.0
2017-Nov-07 16:00S 05°13' E 011°28'1 2.8
2017-Nov-07 15:30S 05°12' E 011°27'2 3.3
2017-Nov-07 15:00S 05°11' E 011°27'4 7.6
2017-Nov-07 14:30S 05°07' E 011°29'1 1.7
2017-Nov-07 14:00S 05°07' E 011°29'2 3.1
2017-Nov-07 13:29S 05°05' E 011°28'1 3.1
2017-Nov-07 13:00S 05°04' E 011°27'2 3.1
2017-Nov-07 12:29S 05°02' E 011°26'2 3.1
2017-Nov-07 11:45S 05°01' E 011°25'1 3.1
2017-Nov-07 11:22S 04°60' E 011°24'1 3.4
2017-Nov-07 10:56S 04°58' E 011°23'1 2.0
2017-Nov-07 10:30S 04°58' E 011°23'2 3.0
2017-Nov-07 10:00S 04°56' E 011°22'4 0.3
2017-Nov-06 22:03S 04°59' E 011°19'0 5.0
2017-Nov-06 21:58S 04°59' E 011°19'0 0.7
2017-Nov-06 21:30S 04°59' E 011°19'3 0.1
2017-Nov-05 23:01S 04°57' E 011°18'0 3.0
2017-Nov-05 22:55S 04°57' E 011°18'2 3.0
2017-Nov-05 22:11S 04°59' E 011°19'1 3.0
2017-Nov-05 21:59S 04°60' E 011°20'2 3.1
2017-Nov-05 21:30S 05°01' E 011°21'2 3.0
2017-Nov-05 20:59S 04°59' E 011°20'1 3.0
2017-Nov-05 20:30S 04°58' E 011°19'2 3.0
2017-Nov-05 20:00S 04°57' E 011°18'0 0.0
2017-Nov-04 22:36S 04°57' E 011°18'1 6.4
2017-Nov-04 22:30S 04°57' E 011°18'1 1.2
2017-Nov-04 22:00S 04°57' E 011°18'2 0.1
2017-Nov-04 00:44S 04°59' E 011°19'1 3.0
2017-Nov-04 00:30S 04°59' E 011°20'2 3.0
2017-Nov-03 23:59S 05°01' E 011°21'1 3.0
2017-Nov-03 23:30S 05°02' E 011°21'2 3.0
2017-Nov-03 23:00S 05°03' E 011°22'2 3.1
2017-Nov-03 22:30S 05°05' E 011°23'2 3.0
2017-Nov-03 22:00S 05°06' E 011°23'1 3.0
2017-Nov-03 21:30S 05°07' E 011°24'1 2.9
2017-Nov-03 21:00S 05°09' E 011°25'1 2.9
2017-Nov-03 20:29S 05°10' E 011°26'1 2.9
2017-Nov-03 19:59S 05°11' E 011°26'1 3.0
2017-Nov-03 19:30S 05°13' E 011°27'1 3.0
2017-Nov-03 19:00S 05°14' E 011°27'1 2.8
2017-Nov-03 18:30S 05°15' E 011°28'1 2.9
2017-Nov-03 18:00S 05°16' E 011°29'1 2.8
2017-Nov-03 17:30S 05°18' E 011°29'1 2.3
2017-Nov-03 16:59S 05°19' E 011°29'1 1.1
2017-Nov-03 16:30S 05°19' E 011°28'2 3.0
2017-Nov-03 16:00S 05°17' E 011°28'1 3.0
2017-Nov-03 15:30S 05°16' E 011°28'2 3.0
2017-Nov-03 15:00S 05°14' E 011°27'1 3.0
2017-Nov-03 14:30S 05°13' E 011°27'1 3.0
2017-Nov-03 14:00S 05°12' E 011°26'2 3.0
2017-Nov-03 13:30S 05°10' E 011°26'1 3.0
2017-Nov-03 13:00S 05°09' E 011°25'2 3.0
2017-Nov-03 12:30S 05°07' E 011°24'1 2.5
2017-Nov-03 11:59S 05°06' E 011°24'2 3.7
2017-Nov-03 11:30S 05°05' E 011°24'4 3.8
2017-Nov-03 10:34S 05°05' E 011°28'0 3.0
2017-Nov-03 10:24S 05°06' E 011°28'1 3.0
2017-Nov-03 10:00S 05°07' E 011°29'2 3.0
2017-Nov-03 09:30S 05°08' E 011°29'1 3.0
2017-Nov-03 09:00S 05°10' E 011°30'2 3.0
2017-Nov-03 08:29S 05°11' E 011°31'2 3.0
2017-Nov-03 07:56S 05°12' E 011°31'1 1.9
2017-Nov-03 07:28S 05°12' E 011°31'1 3.0
2017-Nov-03 06:59S 05°10' E 011°30'1 3.0
2017-Nov-03 06:30S 05°09' E 011°30'1 3.0
2017-Nov-03 06:00S 05°08' E 011°29'2 3.0
2017-Nov-03 05:29S 05°06' E 011°28'1 3.0
2017-Nov-03 05:00S 05°05' E 011°27'2 3.5
2017-Nov-03 04:30S 05°04' E 011°26'4 8.1
2017-Nov-03 04:00S 05°05' E 011°22'1 1.0
2017-Nov-03 03:30S 05°05' E 011°23'2 3.1
2017-Nov-03 03:00S 05°06' E 011°23'1 3.1
2017-Nov-03 02:30S 05°07' E 011°24'2 3.1
2017-Nov-03 02:00S 05°09' E 011°25'2 3.1
2017-Nov-03 01:30S 05°10' E 011°26'2 3.1
2017-Nov-03 01:00S 05°11' E 011°26'2 3.1
2017-Nov-03 00:30S 05°13' E 011°27'2 3.1
2017-Nov-03 00:00S 05°14' E 011°27'2 3.1
2017-Nov-02 23:30S 05°16' E 011°28'2 3.0
2017-Nov-02 23:00S 05°17' E 011°28'2 3.0
2017-Nov-02 22:30S 05°19' E 011°29'3 1.5
2017-Nov-02 20:47S 05°21' E 011°29'1 3.1
2017-Nov-02 20:27S 05°20' E 011°29'1 3.1
2017-Nov-02 20:00S 05°19' E 011°29'2 3.1
2017-Nov-02 19:30S 05°17' E 011°29'2 3.3
2017-Nov-02 19:00S 05°16' E 011°28'1 1.3
2017-Nov-02 18:30S 05°15' E 011°28'2 3.1
2017-Nov-02 18:00S 05°14' E 011°27'1 3.0
2017-Nov-02 17:30S 05°12' E 011°27'1 2.9
2017-Nov-02 17:00S 05°11' E 011°26'1 3.0
2017-Nov-02 16:30S 05°10' E 011°26'1 2.9
2017-Nov-02 16:00S 05°08' E 011°25'3 1.9
2017-Nov-02 14:19S 05°06' E 011°23'1 3.0
2017-Nov-02 14:00S 05°05' E 011°23'4 2.9
2017-Nov-02 12:41S 05°02' E 011°21'0 2.9
2017-Nov-02 12:30S 05°01' E 011°20'1 2.2
2017-Nov-02 12:00S 05°00' E 011°20'3 6.2
2017-Nov-02 11:30S 04°57' E 011°20'2 0.1
2017-Nov-01 19:38S 04°58' E 011°19'0 3.8
2017-Nov-01 19:30S 04°58' E 011°19'7 7.1
2017-Nov-01 18:29S 04°51' E 011°18'4 0.2
2017-Oct-31 19:03S 04°54' E 011°17'0 5.8
2017-Oct-31 19:00S 04°54' E 011°17'2 4.5
2017-Oct-31 18:30S 04°53' E 011°18'4 2.9
2017-Oct-31 17:01S 04°49' E 011°16'  
Track history (hours):
 
Tides and Currents Weather Stations Pressure Air Temp Water Temp Dewpoint Dewpoint Depression Visibility Wind Speed Wind Dir Waves Ship Positions

Mazagon R

Last reported at 2017-Nov-10 11:33 UTC. Time now 2017-Nov-19 01:12 UTC.
Position S 04°56' E 011°22'.
Warning: this ship's position is 8 days out of date.

Length 34 m.

Type: Fishing. MMSI: 224300000.

Date/timePositionNaut miles runAvg speedWind from/ knotsBaromVisibWave heightAir tempDewpointWater temp
2017-Nov-10 11:33S 04°56' E 011°22'1 8.9
2017-Nov-10 11:26S 04°57' E 011°23'3 6.6
2017-Nov-10 11:00S 04°59' E 011°24'2 2.6
2017-Nov-10 10:20S 05°01' E 011°25'2 3.2
2017-Nov-10 09:41S 05°03' E 011°26'1 3.2
2017-Nov-10 09:13S 05°04' E 011°27'1 3.2
2017-Nov-10 08:55S 05°05' E 011°27'1 3.2
2017-Nov-10 08:30S 05°06' E 011°28'0 0.5
2017-Nov-10 07:59S 05°06' E 011°28'2 3.1
2017-Nov-10 07:31S 05°05' E 011°27'2 3.1
2017-Nov-10 06:52S 05°03' E 011°26'1 3.1
2017-Nov-10 06:24S 05°02' E 011°26'1 3.2
2017-Nov-10 05:57S 05°01' E 011°25'2 3.2
2017-Nov-10 05:29S 04°59' E 011°24'2 3.2
2017-Nov-10 05:00S 04°58' E 011°23'3 6.1
2017-Nov-10 04:30S 04°57' E 011°20'2 1.2
2017-Nov-10 02:49S 04°59' E 011°19'1 3.0
2017-Nov-10 02:29S 04°60' E 011°20'1 3.1
2017-Nov-10 02:00S 05°01' E 011°21'2 3.1
2017-Nov-10 01:30S 05°02' E 011°21'2 3.1
2017-Nov-10 01:00S 05°04' E 011°22'2 3.1
2017-Nov-10 00:30S 05°05' E 011°23'2 3.1
2017-Nov-10 00:00S 05°06' E 011°24'2 3.1
2017-Nov-09 23:30S 05°08' E 011°24'2 3.1
2017-Nov-09 23:00S 05°09' E 011°25'2 3.1
2017-Nov-09 22:30S 05°11' E 011°26'2 3.1
2017-Nov-09 22:00S 05°12' E 011°27'2 3.1
2017-Nov-09 21:30S 05°13' E 011°27'2 3.1
2017-Nov-09 21:00S 05°15' E 011°28'2 3.1
2017-Nov-09 20:31S 05°16' E 011°28'2 3.2
2017-Nov-09 20:00S 05°18' E 011°29'2 3.1
2017-Nov-09 19:31S 05°19' E 011°29'1 1.0
2017-Nov-09 19:00S 05°19' E 011°29'1 2.9
2017-Nov-09 18:30S 05°18' E 011°29'1 2.4
2017-Nov-09 18:00S 05°17' E 011°29'1 2.7
2017-Nov-09 17:30S 05°16' E 011°30'3 5.2
2017-Nov-09 16:59S 05°15' E 011°32'1 2.6
2017-Nov-09 16:29S 05°14' E 011°32'2 3.1
2017-Nov-09 16:00S 05°13' E 011°31'2 3.1
2017-Nov-09 15:27S 05°11' E 011°31'1 3.1
2017-Nov-09 14:59S 05°10' E 011°30'2 3.3
2017-Nov-09 14:30S 05°08' E 011°29'0 0.9
2017-Nov-09 13:59S 05°08' E 011°29'2 3.1
2017-Nov-09 13:30S 05°07' E 011°28'2 3.1
2017-Nov-09 13:00S 05°05' E 011°28'2 3.1
2017-Nov-09 12:30S 05°04' E 011°27'2 3.1
2017-Nov-09 11:57S 05°02' E 011°26'1 3.3
2017-Nov-09 11:31S 05°01' E 011°25'3 2.0
2017-Nov-09 10:13S 04°59' E 011°24'1 3.1
2017-Nov-09 09:54S 04°58' E 011°23'2 3.1
2017-Nov-09 09:24S 04°57' E 011°22'2 3.0
2017-Nov-09 08:36S 04°55' E 011°21'0 2.9
2017-Nov-09 08:30S 04°55' E 011°21'10 2.1
2017-Nov-09 03:48S 05°04' E 011°23'1 1.9
2017-Nov-09 03:30S 05°05' E 011°23'0 0.4
2017-Nov-09 03:00S 05°04' E 011°23'0 0.1
2017-Nov-09 02:30S 05°04' E 011°23'0 0.1
2017-Nov-09 02:00S 05°04' E 011°23'0 0.3
2017-Nov-09 01:30S 05°05' E 011°23'1 2.0
2017-Nov-09 01:00S 05°06' E 011°24'1 3.0
2017-Nov-09 00:30S 05°07' E 011°24'2 3.1
2017-Nov-09 00:00S 05°08' E 011°25'2 3.0
2017-Nov-08 23:30S 05°09' E 011°26'2 3.1
2017-Nov-08 23:00S 05°11' E 011°27'2 3.1
2017-Nov-08 22:30S 05°12' E 011°27'2 3.1
2017-Nov-08 22:00S 05°14' E 011°28'1 3.1
2017-Nov-08 21:30S 05°15' E 011°28'2 3.0
2017-Nov-08 21:00S 05°17' E 011°29'1 2.6
2017-Nov-08 20:30S 05°18' E 011°29'4 7.0
2017-Nov-08 20:00S 05°21' E 011°30'3 5.8
2017-Nov-08 19:29S 05°24' E 011°29'0 0.6
2017-Nov-08 18:59S 05°24' E 011°29'2 3.0
2017-Nov-08 18:30S 05°22' E 011°29'2 3.1
2017-Nov-08 18:00S 05°21' E 011°29'2 3.1
2017-Nov-08 17:30S 05°19' E 011°29'2 3.1
2017-Nov-08 16:59S 05°18' E 011°29'2 3.1
2017-Nov-08 16:30S 05°16' E 011°29'2 3.1
2017-Nov-08 16:00S 05°15' E 011°28'1 3.0
2017-Nov-08 15:30S 05°13' E 011°27'2 3.1
2017-Nov-08 15:00S 05°12' E 011°27'2 3.1
2017-Nov-08 14:29S 05°11' E 011°26'1 2.8
2017-Nov-08 14:00S 05°09' E 011°25'1 2.8
2017-Nov-08 13:30S 05°08' E 011°25'0 0.9
2017-Nov-08 13:00S 05°08' E 011°25'1 2.4
2017-Nov-08 12:30S 05°07' E 011°24'2 3.4
2017-Nov-08 12:00S 05°05' E 011°24'3 6.7
2017-Nov-08 11:30S 05°03' E 011°26'1 2.2
2017-Nov-08 10:58S 05°02' E 011°26'1 3.1
2017-Nov-08 10:30S 05°01' E 011°25'2 3.1
2017-Nov-08 09:56S 04°59' E 011°24'1 3.1
2017-Nov-08 09:29S 04°58' E 011°23'2 3.1
2017-Nov-08 08:58S 04°57' E 011°22'2 3.1
2017-Nov-08 08:21S 04°55' E 011°21'3 1.2
2017-Nov-08 05:48S 04°58' E 011°23'3 3.1
2017-Nov-08 04:48S 05°01' E 011°25'1 4.7
2017-Nov-08 04:29S 05°02' E 011°26'4 7.3
2017-Nov-08 03:59S 05°03' E 011°23'0 0.7
2017-Nov-08 03:29S 05°04' E 011°22'2 3.1
2017-Nov-08 03:00S 05°05' E 011°23'1 3.0
2017-Nov-08 02:30S 05°06' E 011°24'2 3.0
2017-Nov-08 02:00S 05°08' E 011°24'2 3.0
2017-Nov-08 01:30S 05°09' E 011°25'2 3.0
2017-Nov-08 01:00S 05°10' E 011°26'2 3.1
2017-Nov-08 00:30S 05°12' E 011°27'1 3.1
2017-Nov-08 00:00S 05°13' E 011°27'2 3.1
2017-Nov-07 23:30S 05°15' E 011°28'2 3.1
2017-Nov-07 23:00S 05°16' E 011°28'2 3.0
2017-Nov-07 22:29S 05°18' E 011°29'3 0.7
2017-Nov-07 18:18S 05°20' E 011°29'2 3.1
2017-Nov-07 17:44S 05°18' E 011°29'1 3.1
2017-Nov-07 17:26S 05°18' E 011°29'1 3.0
2017-Nov-07 17:00S 05°16' E 011°29'2 3.1
2017-Nov-07 16:30S 05°15' E 011°28'1 3.0
2017-Nov-07 16:00S 05°13' E 011°28'1 2.8
2017-Nov-07 15:30S 05°12' E 011°27'2 3.3
2017-Nov-07 15:00S 05°11' E 011°27'4 7.6
2017-Nov-07 14:30S 05°07' E 011°29'1 1.7
2017-Nov-07 14:00S 05°07' E 011°29'2 3.1
2017-Nov-07 13:29S 05°05' E 011°28'1 3.1
2017-Nov-07 13:00S 05°04' E 011°27'2 3.1
2017-Nov-07 12:29S 05°02' E 011°26'2 3.1
2017-Nov-07 11:45S 05°01' E 011°25'1 3.1
2017-Nov-07 11:22S 04°60' E 011°24'1 3.4
2017-Nov-07 10:56S 04°58' E 011°23'1 2.0
2017-Nov-07 10:30S 04°58' E 011°23'2 3.0
2017-Nov-07 10:00S 04°56' E 011°22'4 0.3
2017-Nov-06 22:03S 04°59' E 011°19'0 5.0
2017-Nov-06 21:58S 04°59' E 011°19'0 0.7
2017-Nov-06 21:30S 04°59' E 011°19'3 0.1
2017-Nov-05 23:01S 04°57' E 011°18'0 3.0
2017-Nov-05 22:55S 04°57' E 011°18'2 3.0
2017-Nov-05 22:11S 04°59' E 011°19'1 3.0
2017-Nov-05 21:59S 04°60' E 011°20'2 3.1
2017-Nov-05 21:30S 05°01' E 011°21'2 3.0
2017-Nov-05 20:59S 04°59' E 011°20'1 3.0
2017-Nov-05 20:30S 04°58' E 011°19'2 3.0
2017-Nov-05 20:00S 04°57' E 011°18'0 0.0
2017-Nov-04 22:36S 04°57' E 011°18'1 6.4
2017-Nov-04 22:30S 04°57' E 011°18'1 1.2
2017-Nov-04 22:00S 04°57' E 011°18'2 0.1
2017-Nov-04 00:44S 04°59' E 011°19'1 3.0
2017-Nov-04 00:30S 04°59' E 011°20'2 3.0
2017-Nov-03 23:59S 05°01' E 011°21'1 3.0
2017-Nov-03 23:30S 05°02' E 011°21'2 3.0
2017-Nov-03 23:00S 05°03' E 011°22'2 3.1
2017-Nov-03 22:30S 05°05' E 011°23'2 3.0
2017-Nov-03 22:00S 05°06' E 011°23'1 3.0
2017-Nov-03 21:30S 05°07' E 011°24'1 2.9
2017-Nov-03 21:00S 05°09' E 011°25'1 2.9
2017-Nov-03 20:29S 05°10' E 011°26'1 2.9
2017-Nov-03 19:59S 05°11' E 011°26'1 3.0
2017-Nov-03 19:30S 05°13' E 011°27'1 3.0
2017-Nov-03 19:00S 05°14' E 011°27'1 2.8
2017-Nov-03 18:30S 05°15' E 011°28'1 2.9
2017-Nov-03 18:00S 05°16' E 011°29'1 2.8
2017-Nov-03 17:30S 05°18' E 011°29'1 2.3
2017-Nov-03 16:59S 05°19' E 011°29'1 1.1
2017-Nov-03 16:30S 05°19' E 011°28'2 3.0
2017-Nov-03 16:00S 05°17' E 011°28'1 3.0
2017-Nov-03 15:30S 05°16' E 011°28'2 3.0
2017-Nov-03 15:00S 05°14' E 011°27'1 3.0
2017-Nov-03 14:30S 05°13' E 011°27'1 3.0
2017-Nov-03 14:00S 05°12' E 011°26'2 3.0
2017-Nov-03 13:30S 05°10' E 011°26'1 3.0
2017-Nov-03 13:00S 05°09' E 011°25'2 3.0
2017-Nov-03 12:30S 05°07' E 011°24'1 2.5
2017-Nov-03 11:59S 05°06' E 011°24'2 3.7
2017-Nov-03 11:30S 05°05' E 011°24'4 3.8
2017-Nov-03 10:34S 05°05' E 011°28'0 3.0
2017-Nov-03 10:24S 05°06' E 011°28'1 3.0
2017-Nov-03 10:00S 05°07' E 011°29'2 3.0
2017-Nov-03 09:30S 05°08' E 011°29'1 3.0
2017-Nov-03 09:00S 05°10' E 011°30'2 3.0
2017-Nov-03 08:29S 05°11' E 011°31'2 3.0
2017-Nov-03 07:56S 05°12' E 011°31'1 1.9
2017-Nov-03 07:28S 05°12' E 011°31'1 3.0
2017-Nov-03 06:59S 05°10' E 011°30'1 3.0
2017-Nov-03 06:30S 05°09' E 011°30'1 3.0
2017-Nov-03 06:00S 05°08' E 011°29'2 3.0
2017-Nov-03 05:29S 05°06' E 011°28'1 3.0
2017-Nov-03 05:00S 05°05' E 011°27'2 3.5
2017-Nov-03 04:30S 05°04' E 011°26'4 8.1
2017-Nov-03 04:00S 05°05' E 011°22'1 1.0
2017-Nov-03 03:30S 05°05' E 011°23'2 3.1
2017-Nov-03 03:00S 05°06' E 011°23'1 3.1
2017-Nov-03 02:30S 05°07' E 011°24'2 3.1
2017-Nov-03 02:00S 05°09' E 011°25'2 3.1
2017-Nov-03 01:30S 05°10' E 011°26'2 3.1
2017-Nov-03 01:00S 05°11' E 011°26'2 3.1
2017-Nov-03 00:30S 05°13' E 011°27'2 3.1
2017-Nov-03 00:00S 05°14' E 011°27'2 3.1
2017-Nov-02 23:30S 05°16' E 011°28'2 3.0
2017-Nov-02 23:00S 05°17' E 011°28'2 3.0
2017-Nov-02 22:30S 05°19' E 011°29'3 1.5
2017-Nov-02 20:47S 05°21' E 011°29'1 3.1
2017-Nov-02 20:27S 05°20' E 011°29'1 3.1
2017-Nov-02 20:00S 05°19' E 011°29'2 3.1
2017-Nov-02 19:30S 05°17' E 011°29'2 3.3
2017-Nov-02 19:00S 05°16' E 011°28'1 1.3
2017-Nov-02 18:30S 05°15' E 011°28'2 3.1
2017-Nov-02 18:00S 05°14' E 011°27'1 3.0
2017-Nov-02 17:30S 05°12' E 011°27'1 2.9
2017-Nov-02 17:00S 05°11' E 011°26'1 3.0
2017-Nov-02 16:30S 05°10' E 011°26'1 2.9
2017-Nov-02 16:00S 05°08' E 011°25'3 1.9
2017-Nov-02 14:19S 05°06' E 011°23'1 3.0
2017-Nov-02 14:00S 05°05' E 011°23'4 2.9
2017-Nov-02 12:41S 05°02' E 011°21'0 2.9
2017-Nov-02 12:30S 05°01' E 011°20'1 2.2
2017-Nov-02 12:00S 05°00' E 011°20'3 6.2
2017-Nov-02 11:30S 04°57' E 011°20'2 0.1
2017-Nov-01 19:38S 04°58' E 011°19'0 3.8
2017-Nov-01 19:30S 04°58' E 011°19'7 7.1
2017-Nov-01 18:29S 04°51' E 011°18'4 0.2
2017-Oct-31 19:03S 04°54' E 011°17'0 5.8
2017-Oct-31 19:00S 04°54' E 011°17'2 4.5
2017-Oct-31 18:30S 04°53' E 011°18'4 2.9
2017-Oct-31 17:01S 04°49' E 011°16'  

Dump ship's entire track history